Main page
METAR-TAF:

METAR-TAF

Airports :

Ayatollah Hashemi Rafsanjani Airport

Kerman, Iran

latitude: 30-15N, longitude: 056-58E, elevation: 1748 m

Current weather observation

The report was made 55 minutes ago, at 01:00 UTC
Calm wind
Temperature 3°C
Humidity 65%
Pressure 1023 hPa
Visibility 10 km or more
no clouds below 1500 m and no cumulonimbus

METAR: OIKK 190100Z 00000KT CAVOK 03/M03 Q1023

Time: 05:25 (01:55 UTC)

Forecast

The report was made 2 hours and 55 minutes ago, at 23:00 UTC
Forecast valid from 19 at 00 UTC to 20 at 06 UTC
Wind 8 kt from the South
Visibility: 7000 m
Few clouds at a height of 4000 ft
Temporary
from 19 at 21 UTC to 20 at 06 UTC
Wind 10 kt from the South/Southwest
Visibility: 7000 m
Few clouds at a height of 3500 ft, Cumulonimbus.
Scattered clouds at a height of 4000 ft
Broken clouds at a height of 9000 ft

TAF: OIKK 182300Z 1900/2006 18004MPS 7000 FEW040 TEMPO 1921/2006 20005MPS 7000 FEW035CB SCT040 BKN090

Weather observations and forecasts of more than 4000 airports (METAR and TAF reports).

The available stations are represented by yellow and red dots on the map.

Hover mouse over dot to see the name of the station.

Then click to see weather observations and forecasts.

To change the map : click on the green buttons with a black cross to zoom in, on the green button with a dash to zoom out, or on the green arrows for adjacent maps.


METAR-TAF: